sensor_id;sensor_type;location;lat;lon;timestamp;P1;durP1;ratioP1;P2;durP2;ratioP2
69795;SDS011;57073;45.650;9.612;2023-09-08T00:04:45;8.20;;;5.70;;
69795;SDS011;57073;45.650;9.612;2023-09-08T00:09:46;7.27;;;5.97;;
69795;SDS011;57073;45.650;9.612;2023-09-08T00:14:46;8.30;;;5.57;;
69795;SDS011;57073;45.650;9.612;2023-09-08T00:19:46;7.00;;;5.27;;
69795;SDS011;57073;45.650;9.612;2023-09-08T00:24:47;8.40;;;5.33;;
69795;SDS011;57073;45.650;9.612;2023-09-08T00:29:48;8.00;;;5.65;;
69795;SDS011;57073;45.650;9.612;2023-09-08T00:34:48;8.60;;;5.87;;
69795;SDS011;57073;45.650;9.612;2023-09-08T00:39:48;8.53;;;6.47;;
69795;SDS011;57073;45.650;9.612;2023-09-08T00:44:49;7.80;;;6.10;;
69795;SDS011;57073;45.650;9.612;2023-09-08T00:49:49;7.90;;;5.80;;
69795;SDS011;57073;45.650;9.612;2023-09-08T00:54:51;8.88;;;5.90;;
69795;SDS011;57073;45.650;9.612;2023-09-08T00:59:52;7.43;;;6.30;;
69795;SDS011;57073;45.650;9.612;2023-09-08T01:04:53;7.70;;;6.23;;
69795;SDS011;57073;45.650;9.612;2023-09-08T01:09:53;8.30;;;6.03;;
69795;SDS011;57073;45.650;9.612;2023-09-08T01:14:54;8.35;;;6.03;;
69795;SDS011;57073;45.650;9.612;2023-09-08T01:19:55;9.03;;;6.13;;
69795;SDS011;57073;45.650;9.612;2023-09-08T01:30:25;9.27;;;5.93;;
69795;SDS011;57073;45.650;9.612;2023-09-08T01:35:28;8.63;;;6.20;;
69795;SDS011;57073;45.650;9.612;2023-09-08T01:40:28;8.98;;;5.85;;
69795;SDS011;57073;45.650;9.612;2023-09-08T01:45:29;9.77;;;6.57;;
69795;SDS011;57073;45.650;9.612;2023-09-08T01:50:29;7.27;;;5.47;;
69795;SDS011;57073;45.650;9.612;2023-09-08T01:55:29;8.20;;;6.30;;
69795;SDS011;57073;45.650;9.612;2023-09-08T02:00:30;10.30;;;6.00;;
69795;SDS011;57073;45.650;9.612;2023-09-08T02:05:30;7.57;;;6.20;;
69795;SDS011;57073;45.650;9.612;2023-09-08T02:10:30;7.80;;;5.80;;
69795;SDS011;57073;45.650;9.612;2023-09-08T02:15:34;8.47;;;5.90;;
69795;SDS011;57073;45.650;9.612;2023-09-08T02:20:36;9.77;;;5.70;;
69795;SDS011;57073;45.650;9.612;2023-09-08T02:25:36;10.43;;;6.23;;
69795;SDS011;57073;45.650;9.612;2023-09-08T02:30:37;8.93;;;6.00;;
69795;SDS011;57073;45.650;9.612;2023-09-08T02:35:37;9.97;;;5.57;;
69795;SDS011;57073;45.650;9.612;2023-09-08T02:40:40;9.93;;;5.60;;
69795;SDS011;57073;45.650;9.612;2023-09-08T02:45:41;7.40;;;5.70;;
69795;SDS011;57073;45.650;9.612;2023-09-08T02:50:41;13.17;;;6.10;;
69795;SDS011;57073;45.650;9.612;2023-09-08T02:55:43;7.50;;;6.00;;
69795;SDS011;57073;45.650;9.612;2023-09-08T03:00:43;7.33;;;5.83;;
69795;SDS011;57073;45.650;9.612;2023-09-08T03:05:44;9.03;;;5.30;;
69795;SDS011;57073;45.650;9.612;2023-09-08T03:10:44;10.77;;;5.53;;
69795;SDS011;57073;45.650;9.612;2023-09-08T03:15:44;7.23;;;5.70;;
69795;SDS011;57073;45.650;9.612;2023-09-08T03:20:48;7.63;;;5.50;;
69795;SDS011;57073;45.650;9.612;2023-09-08T03:25:50;8.43;;;5.97;;
69795;SDS011;57073;45.650;9.612;2023-09-08T03:30:50;7.63;;;5.80;;
69795;SDS011;57073;45.650;9.612;2023-09-08T03:35:50;10.83;;;6.10;;
69795;SDS011;57073;45.650;9.612;2023-09-08T03:40:51;7.70;;;5.50;;
69795;SDS011;57073;45.650;9.612;2023-09-08T03:45:51;7.50;;;5.70;;
69795;SDS011;57073;45.650;9.612;2023-09-08T03:50:51;6.53;;;4.97;;
69795;SDS011;57073;45.650;9.612;2023-09-08T03:55:52;8.63;;;5.60;;
69795;SDS011;57073;45.650;9.612;2023-09-08T04:00:52;7.93;;;5.13;;
69795;SDS011;57073;45.650;9.612;2023-09-08T04:05:53;7.93;;;5.70;;
69795;SDS011;57073;45.650;9.612;2023-09-08T04:10:53;7.93;;;5.50;;
69795;SDS011;57073;45.650;9.612;2023-09-08T04:15:53;7.30;;;5.40;;
69795;SDS011;57073;45.650;9.612;2023-09-08T04:20:54;8.07;;;5.90;;
69795;SDS011;57073;45.650;9.612;2023-09-08T04:25:54;6.47;;;5.13;;
69795;SDS011;57073;45.650;9.612;2023-09-08T04:30:54;10.80;;;5.60;;
69795;SDS011;57073;45.650;9.612;2023-09-08T04:35:55;9.40;;;5.23;;
69795;SDS011;57073;45.650;9.612;2023-09-08T04:40:55;6.43;;;5.30;;
69795;SDS011;57073;45.650;9.612;2023-09-08T04:45:56;7.67;;;5.63;;
69795;SDS011;57073;45.650;9.612;2023-09-08T04:50:56;7.37;;;4.97;;
69795;SDS011;57073;45.650;9.612;2023-09-08T04:55:57;9.53;;;5.57;;
69795;SDS011;57073;45.650;9.612;2023-09-08T05:00:57;8.53;;;5.80;;
69795;SDS011;57073;45.650;9.612;2023-09-08T05:05:57;8.13;;;5.37;;
69795;SDS011;57073;45.650;9.612;2023-09-08T05:10:58;7.47;;;5.83;;
69795;SDS011;57073;45.650;9.612;2023-09-08T05:15:58;8.43;;;5.30;;
69795;SDS011;57073;45.650;9.612;2023-09-08T05:21:10;9.63;;;5.80;;
69795;SDS011;57073;45.650;9.612;2023-09-08T05:26:11;7.63;;;4.73;;
69795;SDS011;57073;45.650;9.612;2023-09-08T05:31:11;9.80;;;5.63;;
69795;SDS011;57073;45.650;9.612;2023-09-08T05:36:12;7.13;;;5.33;;
69795;SDS011;57073;45.650;9.612;2023-09-08T05:41:12;9.73;;;5.27;;
69795;SDS011;57073;45.650;9.612;2023-09-08T05:46:12;10.93;;;5.03;;
69795;SDS011;57073;45.650;9.612;2023-09-08T05:51:13;8.80;;;5.10;;
69795;SDS011;57073;45.650;9.612;2023-09-08T05:56:15;8.68;;;4.85;;
69795;SDS011;57073;45.650;9.612;2023-09-08T06:01:15;10.17;;;4.73;;
69795;SDS011;57073;45.650;9.612;2023-09-08T06:06:16;8.50;;;4.83;;
69795;SDS011;57073;45.650;9.612;2023-09-08T06:11:17;9.83;;;5.40;;
69795;SDS011;57073;45.650;9.612;2023-09-08T06:16:17;10.07;;;6.00;;
69795;SDS011;57073;45.650;9.612;2023-09-08T06:21:19;9.48;;;5.82;;
69795;SDS011;57073;45.650;9.612;2023-09-08T06:26:19;8.33;;;5.63;;
69795;SDS011;57073;45.650;9.612;2023-09-08T06:31:20;12.73;;;6.47;;
69795;SDS011;57073;45.650;9.612;2023-09-08T06:36:20;8.47;;;6.27;;
69795;SDS011;57073;45.650;9.612;2023-09-08T06:41:20;10.27;;;6.00;;
69795;SDS011;57073;45.650;9.612;2023-09-08T06:46:23;8.45;;;5.60;;
69795;SDS011;57073;45.650;9.612;2023-09-08T06:51:23;8.13;;;5.70;;
69795;SDS011;57073;45.650;9.612;2023-09-08T06:56:24;8.57;;;5.23;;
69795;SDS011;57073;45.650;9.612;2023-09-08T07:01:24;11.73;;;6.10;;
69795;SDS011;57073;45.650;9.612;2023-09-08T07:06:25;10.35;;;5.40;;
69795;SDS011;57073;45.650;9.612;2023-09-08T07:11:25;8.77;;;5.80;;
69795;SDS011;57073;45.650;9.612;2023-09-08T07:16:26;11.03;;;5.53;;
69795;SDS011;57073;45.650;9.612;2023-09-08T07:21:26;7.20;;;5.13;;
69795;SDS011;57073;45.650;9.612;2023-09-08T07:26:27;8.07;;;5.23;;
69795;SDS011;57073;45.650;9.612;2023-09-08T07:31:27;11.20;;;5.00;;
69795;SDS011;57073;45.650;9.612;2023-09-08T07:36:31;17.05;;;6.63;;
69795;SDS011;57073;45.650;9.612;2023-09-08T07:41:31;8.63;;;5.60;;
69795;SDS011;57073;45.650;9.612;2023-09-08T07:46:32;13.30;;;5.60;;
69795;SDS011;57073;45.650;9.612;2023-09-08T07:51:32;7.77;;;4.83;;
69795;SDS011;57073;45.650;9.612;2023-09-08T07:56:32;8.20;;;5.00;;
69795;SDS011;57073;45.650;9.612;2023-09-08T08:01:33;6.13;;;4.73;;
69795;SDS011;57073;45.650;9.612;2023-09-08T08:06:33;7.13;;;5.00;;
69795;SDS011;57073;45.650;9.612;2023-09-08T08:11:34;7.47;;;4.50;;
69795;SDS011;57073;45.650;9.612;2023-09-08T08:16:34;5.83;;;4.07;;
69795;SDS011;57073;45.650;9.612;2023-09-08T08:21:35;6.57;;;4.30;;
69795;SDS011;57073;45.650;9.612;2023-09-08T08:26:37;5.78;;;4.70;;
69795;SDS011;57073;45.650;9.612;2023-09-08T08:31:37;8.23;;;4.50;;
69795;SDS011;57073;45.650;9.612;2023-09-08T08:36:37;6.53;;;4.20;;
69795;SDS011;57073;45.650;9.612;2023-09-08T08:41:38;5.23;;;4.33;;
69795;SDS011;57073;45.650;9.612;2023-09-08T08:46:40;6.43;;;4.60;;
69795;SDS011;57073;45.650;9.612;2023-09-08T08:51:45;6.77;;;4.87;;
69795;SDS011;57073;45.650;9.612;2023-09-08T08:56:47;7.55;;;4.82;;
69795;SDS011;57073;45.650;9.612;2023-09-08T09:01:48;5.60;;;4.82;;
69795;SDS011;57073;45.650;9.612;2023-09-08T09:06:49;6.40;;;4.93;;
69795;SDS011;57073;45.650;9.612;2023-09-08T09:11:51;7.47;;;5.10;;
69795;SDS011;57073;45.650;9.612;2023-09-08T09:16:51;8.13;;;4.40;;
69795;SDS011;57073;45.650;9.612;2023-09-08T09:21:51;7.13;;;4.83;;
69795;SDS011;57073;45.650;9.612;2023-09-08T09:26:55;6.93;;;4.80;;
69795;SDS011;57073;45.650;9.612;2023-09-08T09:31:57;8.77;;;4.85;;
69795;SDS011;57073;45.650;9.612;2023-09-08T09:37:01;6.10;;;4.88;;
69795;SDS011;57073;45.650;9.612;2023-09-08T09:42:05;6.07;;;4.87;;
69795;SDS011;57073;45.650;9.612;2023-09-08T09:47:06;6.37;;;5.17;;
69795;SDS011;57073;45.650;9.612;2023-09-08T09:52:09;6.82;;;5.13;;
69795;SDS011;57073;45.650;9.612;2023-09-08T09:57:13;6.43;;;5.70;;
69795;SDS011;57073;45.650;9.612;2023-09-08T10:02:14;7.97;;;5.20;;
69795;SDS011;57073;45.650;9.612;2023-09-08T10:07:15;7.03;;;4.93;;
69795;SDS011;57073;45.650;9.612;2023-09-08T10:12:17;6.67;;;4.93;;
69795;SDS011;57073;45.650;9.612;2023-09-08T10:17:19;11.63;;;5.00;;
69795;SDS011;57073;45.650;9.612;2023-09-08T10:22:26;10.48;;;4.93;;
69795;SDS011;57073;45.650;9.612;2023-09-08T10:27:30;8.98;;;5.25;;
69795;SDS011;57073;45.650;9.612;2023-09-08T10:32:35;7.93;;;5.00;;
69795;SDS011;57073;45.650;9.612;2023-09-08T10:37:36;7.07;;;5.03;;
69795;SDS011;57073;45.650;9.612;2023-09-08T10:42:40;7.88;;;4.68;;
69795;SDS011;57073;45.650;9.612;2023-09-08T10:47:54;6.93;;;5.00;;
69795;SDS011;57073;45.650;9.612;2023-09-08T10:53:07;13.82;;;5.50;;
69795;SDS011;57073;45.650;9.612;2023-09-08T10:58:09;8.47;;;5.13;;
69795;SDS011;57073;45.650;9.612;2023-09-08T11:03:10;7.10;;;5.00;;
69795;SDS011;57073;45.650;9.612;2023-09-08T11:08:11;6.43;;;5.10;;
69795;SDS011;57073;45.650;9.612;2023-09-08T11:13:11;8.17;;;5.87;;
69795;SDS011;57073;45.650;9.612;2023-09-08T11:18:12;6.60;;;5.30;;
69795;SDS011;57073;45.650;9.612;2023-09-08T11:23:13;6.80;;;5.20;;
69795;SDS011;57073;45.650;9.612;2023-09-08T11:28:13;10.30;;;5.50;;
69795;SDS011;57073;45.650;9.612;2023-09-08T11:33:17;6.63;;;5.57;;
69795;SDS011;57073;45.650;9.612;2023-09-08T11:38:23;8.15;;;5.20;;
69795;SDS011;57073;45.650;9.612;2023-09-08T11:43:25;7.40;;;5.35;;
69795;SDS011;57073;45.650;9.612;2023-09-08T11:48:27;9.33;;;5.80;;
69795;SDS011;57073;45.650;9.612;2023-09-08T11:53:27;9.07;;;5.70;;
69795;SDS011;57073;45.650;9.612;2023-09-08T11:58:29;6.85;;;5.70;;
69795;SDS011;57073;45.650;9.612;2023-09-08T12:03:31;7.50;;;5.72;;
69795;SDS011;57073;45.650;9.612;2023-09-08T12:08:31;6.53;;;5.53;;
69795;SDS011;57073;45.650;9.612;2023-09-08T12:13:33;5.93;;;5.00;;
69795;SDS011;57073;45.650;9.612;2023-09-08T12:18:39;7.43;;;5.60;;
69795;SDS011;57073;45.650;9.612;2023-09-08T12:23:47;7.90;;;5.50;;
69795;SDS011;57073;45.650;9.612;2023-09-08T12:28:52;9.95;;;5.93;;
69795;SDS011;57073;45.650;9.612;2023-09-08T12:33:54;7.80;;;5.32;;
69795;SDS011;57073;45.650;9.612;2023-09-08T12:38:54;8.87;;;5.93;;
69795;SDS011;57073;45.650;9.612;2023-09-08T12:43:55;7.55;;;5.68;;
69795;SDS011;57073;45.650;9.612;2023-09-08T12:48:56;7.30;;;5.80;;
69795;SDS011;57073;45.650;9.612;2023-09-08T12:53:56;6.30;;;5.17;;
69795;SDS011;57073;45.650;9.612;2023-09-08T12:58:57;8.90;;;5.53;;
69795;SDS011;57073;45.650;9.612;2023-09-08T13:03:58;7.53;;;5.53;;
69795;SDS011;57073;45.650;9.612;2023-09-08T13:09:00;10.82;;;5.90;;
69795;SDS011;57073;45.650;9.612;2023-09-08T13:14:01;8.32;;;6.40;;
69795;SDS011;57073;45.650;9.612;2023-09-08T13:19:01;8.40;;;5.93;;
69795;SDS011;57073;45.650;9.612;2023-09-08T13:24:05;8.70;;;5.78;;
69795;SDS011;57073;45.650;9.612;2023-09-08T13:29:08;13.30;;;5.90;;
69795;SDS011;57073;45.650;9.612;2023-09-08T13:34:08;9.25;;;5.13;;
69795;SDS011;57073;45.650;9.612;2023-09-08T13:39:09;6.17;;;5.57;;
69795;SDS011;57073;45.650;9.612;2023-09-08T13:44:10;7.50;;;5.87;;
69795;SDS011;57073;45.650;9.612;2023-09-08T13:49:11;11.77;;;6.10;;
69795;SDS011;57073;45.650;9.612;2023-09-08T13:54:12;6.45;;;5.20;;
69795;SDS011;57073;45.650;9.612;2023-09-08T13:59:14;8.13;;;6.05;;
69795;SDS011;57073;45.650;9.612;2023-09-08T14:04:15;8.70;;;6.20;;
69795;SDS011;57073;45.650;9.612;2023-09-08T14:09:16;20.33;;;6.97;;
69795;SDS011;57073;45.650;9.612;2023-09-08T14:14:16;9.30;;;6.30;;
69795;SDS011;57073;45.650;9.612;2023-09-08T14:19:17;7.17;;;5.70;;
69795;SDS011;57073;45.650;9.612;2023-09-08T14:24:18;8.02;;;5.90;;
69795;SDS011;57073;45.650;9.612;2023-09-08T14:29:20;10.27;;;6.20;;
69795;SDS011;57073;45.650;9.612;2023-09-08T14:34:23;7.97;;;6.47;;
69795;SDS011;57073;45.650;9.612;2023-09-08T14:39:25;9.35;;;6.10;;
69795;SDS011;57073;45.650;9.612;2023-09-08T14:44:26;9.07;;;6.13;;
69795;SDS011;57073;45.650;9.612;2023-09-08T14:49:27;10.52;;;6.57;;
69795;SDS011;57073;45.650;9.612;2023-09-08T14:54:28;10.13;;;6.37;;
69795;SDS011;57073;45.650;9.612;2023-09-08T14:59:29;8.52;;;6.25;;
69795;SDS011;57073;45.650;9.612;2023-09-08T15:04:29;15.03;;;6.27;;
69795;SDS011;57073;45.650;9.612;2023-09-08T15:09:30;8.17;;;6.47;;
69795;SDS011;57073;45.650;9.612;2023-09-08T15:14:31;10.52;;;6.20;;
69795;SDS011;57073;45.650;9.612;2023-09-08T15:19:32;7.13;;;6.00;;
69795;SDS011;57073;45.650;9.612;2023-09-08T15:24:33;11.57;;;6.43;;
69795;SDS011;57073;45.650;9.612;2023-09-08T15:29:34;9.32;;;6.20;;
69795;SDS011;57073;45.650;9.612;2023-09-08T15:34:35;8.50;;;6.37;;
69795;SDS011;57073;45.650;9.612;2023-09-08T15:39:35;7.17;;;5.73;;
69795;SDS011;57073;45.650;9.612;2023-09-08T15:44:35;8.80;;;6.60;;
69795;SDS011;57073;45.650;9.612;2023-09-08T15:49:36;13.17;;;6.23;;
69795;SDS011;57073;45.650;9.612;2023-09-08T15:54:36;11.37;;;6.33;;
69795;SDS011;57073;45.650;9.612;2023-09-08T15:59:37;10.55;;;5.88;;
69795;SDS011;57073;45.650;9.612;2023-09-08T16:04:40;7.97;;;5.87;;
69795;SDS011;57073;45.650;9.612;2023-09-08T16:09:40;9.30;;;5.60;;
69795;SDS011;57073;45.650;9.612;2023-09-08T16:14:41;6.77;;;5.60;;
69795;SDS011;57073;45.650;9.612;2023-09-08T16:19:41;8.93;;;5.90;;
69795;SDS011;57073;45.650;9.612;2023-09-08T16:24:42;12.88;;;5.90;;
69795;SDS011;57073;45.650;9.612;2023-09-08T16:29:44;7.67;;;5.83;;
69795;SDS011;57073;45.650;9.612;2023-09-08T16:34:45;8.20;;;6.43;;
69795;SDS011;57073;45.650;9.612;2023-09-08T16:39:46;7.93;;;6.00;;
69795;SDS011;57073;45.650;9.612;2023-09-08T16:44:47;7.20;;;5.87;;
69795;SDS011;57073;45.650;9.612;2023-09-08T16:49:48;8.48;;;5.80;;
69795;SDS011;57073;45.650;9.612;2023-09-08T16:54:49;9.03;;;6.03;;
69795;SDS011;57073;45.650;9.612;2023-09-08T16:59:50;10.18;;;5.70;;
69795;SDS011;57073;45.650;9.612;2023-09-08T17:04:50;10.87;;;5.90;;
69795;SDS011;57073;45.650;9.612;2023-09-08T17:09:51;9.23;;;5.93;;
69795;SDS011;57073;45.650;9.612;2023-09-08T17:14:53;9.00;;;5.63;;
69795;SDS011;57073;45.650;9.612;2023-09-08T17:19:54;10.70;;;6.00;;
69795;SDS011;57073;45.650;9.612;2023-09-08T17:24:56;7.70;;;5.50;;
69795;SDS011;57073;45.650;9.612;2023-09-08T17:29:56;7.17;;;5.80;;
69795;SDS011;57073;45.650;9.612;2023-09-08T17:34:57;7.13;;;5.77;;
69795;SDS011;57073;45.650;9.612;2023-09-08T17:39:57;10.90;;;5.80;;
69795;SDS011;57073;45.650;9.612;2023-09-08T17:44:57;8.52;;;5.93;;
69795;SDS011;57073;45.650;9.612;2023-09-08T17:49:58;9.63;;;5.97;;
69795;SDS011;57073;45.650;9.612;2023-09-08T17:54:58;7.17;;;5.97;;
69795;SDS011;57073;45.650;9.612;2023-09-08T18:00:02;9.73;;;5.50;;
69795;SDS011;57073;45.650;9.612;2023-09-08T18:05:05;10.10;;;5.75;;
69795;SDS011;57073;45.650;9.612;2023-09-08T18:10:06;7.90;;;5.90;;
69795;SDS011;57073;45.650;9.612;2023-09-08T18:15:07;10.27;;;5.80;;
69795;SDS011;57073;45.650;9.612;2023-09-08T18:20:08;10.82;;;5.97;;
69795;SDS011;57073;45.650;9.612;2023-09-08T18:25:09;12.03;;;5.53;;
69795;SDS011;57073;45.650;9.612;2023-09-08T18:30:10;11.52;;;6.43;;
69795;SDS011;57073;45.650;9.612;2023-09-08T18:35:10;9.93;;;5.87;;
69795;SDS011;57073;45.650;9.612;2023-09-08T18:40:11;9.33;;;5.87;;
69795;SDS011;57073;45.650;9.612;2023-09-08T18:45:12;10.77;;;5.82;;
69795;SDS011;57073;45.650;9.612;2023-09-08T18:50:12;10.03;;;5.53;;
69795;SDS011;57073;45.650;9.612;2023-09-08T18:55:12;9.00;;;5.57;;
69795;SDS011;57073;45.650;9.612;2023-09-08T19:00:13;10.80;;;6.33;;
69795;SDS011;57073;45.650;9.612;2023-09-08T19:05:13;10.50;;;6.33;;
69795;SDS011;57073;45.650;9.612;2023-09-08T19:10:14;8.93;;;7.23;;
69795;SDS011;57073;45.650;9.612;2023-09-08T19:15:14;10.87;;;6.97;;
69795;SDS011;57073;45.650;9.612;2023-09-08T19:20:16;13.18;;;7.30;;
69795;SDS011;57073;45.650;9.612;2023-09-08T19:25:16;9.87;;;7.97;;
69795;SDS011;57073;45.650;9.612;2023-09-08T19:30:17;12.23;;;7.87;;
69795;SDS011;57073;45.650;9.612;2023-09-08T19:35:17;14.20;;;7.80;;
69795;SDS011;57073;45.650;9.612;2023-09-08T19:40:17;12.50;;;7.73;;
69795;SDS011;57073;45.650;9.612;2023-09-08T19:45:18;10.90;;;7.67;;
69795;SDS011;57073;45.650;9.612;2023-09-08T19:50:18;14.43;;;8.73;;
69795;SDS011;57073;45.650;9.612;2023-09-08T19:55:19;14.93;;;9.17;;
69795;SDS011;57073;45.650;9.612;2023-09-08T20:00:19;14.17;;;8.40;;
69795;SDS011;57073;45.650;9.612;2023-09-08T20:05:19;12.37;;;8.27;;
69795;SDS011;57073;45.650;9.612;2023-09-08T20:10:20;11.23;;;8.20;;
69795;SDS011;57073;45.650;9.612;2023-09-08T20:15:20;15.83;;;9.30;;
69795;SDS011;57073;45.650;9.612;2023-09-08T20:20:21;15.20;;;9.60;;
69795;SDS011;57073;45.650;9.612;2023-09-08T20:25:21;14.05;;;7.97;;
69795;SDS011;57073;45.650;9.612;2023-09-08T20:30:22;12.87;;;8.27;;
69795;SDS011;57073;45.650;9.612;2023-09-08T20:35:23;11.37;;;7.60;;
69795;SDS011;57073;45.650;9.612;2023-09-08T20:40:23;10.37;;;7.50;;
69795;SDS011;57073;45.650;9.612;2023-09-08T20:45:23;9.93;;;7.80;;
69795;SDS011;57073;45.650;9.612;2023-09-08T20:50:24;12.40;;;7.07;;
69795;SDS011;57073;45.650;9.612;2023-09-08T20:55:25;8.77;;;7.55;;
69795;SDS011;57073;45.650;9.612;2023-09-08T21:00:26;9.30;;;7.10;;
69795;SDS011;57073;45.650;9.612;2023-09-08T21:05:28;9.65;;;7.60;;
69795;SDS011;57073;45.650;9.612;2023-09-08T21:10:28;9.50;;;6.87;;
69795;SDS011;57073;45.650;9.612;2023-09-08T21:15:29;8.03;;;7.00;;
69795;SDS011;57073;45.650;9.612;2023-09-08T21:20:29;10.30;;;7.90;;
69795;SDS011;57073;45.650;9.612;2023-09-08T21:25:30;12.60;;;7.87;;
69795;SDS011;57073;45.650;9.612;2023-09-08T21:30:31;13.23;;;7.47;;
69795;SDS011;57073;45.650;9.612;2023-09-08T21:35:31;11.03;;;7.27;;
69795;SDS011;57073;45.650;9.612;2023-09-08T21:40:32;9.97;;;7.53;;
69795;SDS011;57073;45.650;9.612;2023-09-08T21:45:32;9.63;;;7.20;;
69795;SDS011;57073;45.650;9.612;2023-09-08T21:50:32;11.27;;;7.30;;
69795;SDS011;57073;45.650;9.612;2023-09-08T21:55:34;8.85;;;7.10;;
69795;SDS011;57073;45.650;9.612;2023-09-08T22:00:35;9.90;;;7.07;;
69795;SDS011;57073;45.650;9.612;2023-09-08T22:05:36;9.23;;;6.93;;
69795;SDS011;57073;45.650;9.612;2023-09-08T22:10:37;14.05;;;7.57;;
69795;SDS011;57073;45.650;9.612;2023-09-08T22:15:37;11.93;;;7.50;;
69795;SDS011;57073;45.650;9.612;2023-09-08T22:20:38;10.67;;;7.17;;
69795;SDS011;57073;45.650;9.612;2023-09-08T22:25:40;8.80;;;6.65;;
69795;SDS011;57073;45.650;9.612;2023-09-08T22:30:40;10.97;;;7.47;;
69795;SDS011;57073;45.650;9.612;2023-09-08T22:35:40;7.87;;;6.80;;
69795;SDS011;57073;45.650;9.612;2023-09-08T22:40:40;9.07;;;6.77;;
69795;SDS011;57073;45.650;9.612;2023-09-08T22:45:41;10.77;;;7.43;;
69795;SDS011;57073;45.650;9.612;2023-09-08T22:50:42;9.40;;;7.50;;
69795;SDS011;57073;45.650;9.612;2023-09-08T22:55:43;10.70;;;6.97;;
69795;SDS011;57073;45.650;9.612;2023-09-08T23:00:44;10.70;;;7.27;;
69795;SDS011;57073;45.650;9.612;2023-09-08T23:05:44;8.37;;;7.00;;
69795;SDS011;57073;45.650;9.612;2023-09-08T23:10:44;8.70;;;6.80;;
69795;SDS011;57073;45.650;9.612;2023-09-08T23:15:45;9.48;;;7.05;;
69795;SDS011;57073;45.650;9.612;2023-09-08T23:20:47;9.30;;;7.10;;
69795;SDS011;57073;45.650;9.612;2023-09-08T23:25:48;9.38;;;7.38;;
69795;SDS011;57073;45.650;9.612;2023-09-08T23:30:49;9.87;;;7.50;;
69795;SDS011;57073;45.650;9.612;2023-09-08T23:35:50;8.97;;;7.47;;
69795;SDS011;57073;45.650;9.612;2023-09-08T23:40:50;9.57;;;7.27;;
69795;SDS011;57073;45.650;9.612;2023-09-08T23:45:50;9.63;;;6.53;;
69795;SDS011;57073;45.650;9.612;2023-09-08T23:50:54;11.50;;;7.70;;
69795;SDS011;57073;45.650;9.612;2023-09-08T23:55:59;10.93;;;7.10;;
